AirNav   TITAN Aviation Fuels
 
 631 users online  

2AK0 Mac Kenzie Country Airpark
Point MacKenzie, Alaska, USA

GOING TO POINT MACKENZIE?


FAA INFORMATION EFFECTIVE 17 JUNE 2021

Location

FAA Identifier: 2AK0
Lat/Long: 61-15-21.1700N 149-58-28.7600W
61-15.352833N 149-58.479333W
61.2558806,-149.9746556
(estimated)
Elevation: 120 ft. / 37 m
Time zone: UTC -8 (UTC -9 during Standard Time)
Zip code: 99687

Airport Operations

Airport use: Private use. Permission required prior to landing
Activation date: 04/2004
Control tower: no
ARTCC: ANCHORAGE CENTER
FSS: KENAI FLIGHT SERVICE STATION [907-283-7211]
Attendance: UNATNDD
Segmented circle: no

Airport Communications

CTAF: 122.9
WX ASOS at LHD (4 nm S): PHONE 907-245-5432
WX ASOS at MRI (5 nm SE): 124.25 (907-271-5277)
WX ASOS at ANC (5 nm S): PHONE 907-271-5278
WX ASOS at FRN (9 nm E): 134.25
WX AWOS-3P at BCV (17 nm NE): 135.55 (907-688-0826)

Nearby radio navigation aids

VOR radial/distance  VOR name  Freq  Var
TEDr337/5.3ANCHORAGE VOR/DME113.1518E
BGQr162/18.8BIG LAKE VORTAC112.5019E

Airport Services

Runway Information

Runway 16/34

Dimensions: 1400 x 60 ft. / 427 x 18 m
Surface: dirt
RUNWAY 16  RUNWAY 34
Traffic pattern: leftleft

Airport Ownership and Management from official FAA records

Ownership: Privately-owned
Owner: ELINOR JONES-ELG
BOX 610
AGUILA, AZ 85320-0610
Phone 907-243-7733
Manager: ELINOR JONES-ELG
BOX 610
AGUILA, AZ 85320-0610
Phone 928-671-2882

Airport Operational Statistics

Aircraft based on the field: 1
Single engine airplanes: 1
    

Additional Remarks

SOFT AT SPRING THAW.
RY NOT PLOWED IN WINTER.
TREES & BRUSH ALONG BOTH SIDES OF RY.

Instrument Procedures

There are no published instrument procedures at 2AK0.

Some nearby airports with instrument procedures:

PAMR - Merrill Field Airport (5 nm SE)
PAED - Elmendorf Air Force Base (5 nm E)
PANC - Ted Stevens Anchorage International Airport (5 nm S)
PAFR - Bryant Army Airfield Heliport (9 nm E)
PAGQ - Big Lake Airport (17 nm N)
 
Loc | Ops | Rwys | IFR | FBO | Links
Com | Nav | Svcs | Stats | Notes

Crowley
 
Area around 2AK0 (Mac Kenzie Country Airpark)
 
Road maps at: MapQuest Bing Google
 
Aerial photo
No photo
 
Sectional chart

 
Airport distance calculator
Flying to Mac Kenzie Country Airpark? Find the distance to fly.

From to 2AK0

Sunrise and sunset
Times for 19-Jun-2021
 Local
(UTC-8)
 Zulu
(UTC)
Morning civil twilight++
Sunrise04:2112:21
Sunset23:4207:42
Evening civil twilight++

Current date and time
Zulu (UTC)  20-Jun-2021 04:41:37
Local (UTC-8)  19-Jun-2021 20:41:37
 
METAR
PALH 
4nm S 
200353Z 17010G15KT 10SM FEW085 17/06 A3002 RMK AO2 SLP166 T01720061
PAED 
5nm E 
200356Z 18013KT 10SM SCT070 BKN090 19/05 A3001 RMK AO2A SLP158 T01860054 $
PANC 
5nm S 
200353Z 14012G22KT 10SM FEW030 BKN075 17/06 A3001 RMK AO2 SLP162 T01670061
PAFR 
9nm E 
200358Z AUTO 12011KT 10SM OVC070 18/05 A2998 RMK AO2 SLP158 T01750054 PNO $
PABV 
16nm NE 
200356Z AUTO 04006KT 10SM OVC090 18/08 A3002 RMK AO2 SLP172 T01780083
TAF
PAED 
5nm E 
200200Z 2002/2108 VRB06KT 9999 FEW040 SCT060 BKN100 QNH2990INS TX19/2002Z TN11/2013Z
PANC 
5nm S 
192133Z 1922/2024 VRB05KT P6SM FEW010 BKN070 FM200000 15014G24KT P6SM SCT070 BKN120 FM201000 VRB04KT P6SM SCT080 BKN150 FM202100 VRB04KT P6SM -RA SCT045 OVC060
NOTAMs
Click for the latest NOTAMs
NOTAMs are issued by the DoD/FAA and will open in a separate window not controlled by AirNav.

 

 
 

Would you like to see your business listed on this page?

 If your business provides an interesting product or service to pilots, flight crews, aircraft, or users of the Mac Kenzie Country Airpark, you should consider listing it here.  To start the listing process, click on the button below
 
Add a business
 

Other Pages about Mac Kenzie Country Airpark

Update a link
 
Copyright © AirNav, LLC. All rights reserved. Privacy Policy  Contact